Paradise — 3FOB5 — position and weather

sailwx.info

Track history (hours):
 
Tides and Currents Weather Stations Pressure Air Temp Water Temp Dewpoint Dewpoint Depression Visibility Wind Speed Wind Dir Waves Ship Positions

Paradise

Operator: Carnival Cruise Lines

Last reported at 2020-Sep-27 19:00 UTC. Time now 2020-Sep-29 07:43 UTC.
Position N 25°42' W 078°24'.

Type: Passenger vessel. MMSI: 355833000.

Wind from 110 at 3 knots

Barometer 1012.7 mb
Air temperature 30.0 ° C
Dewpoint 19.4 ° C
Water temperature 29.0 ° C

Date/timePositionNaut miles runAvg speedWind from/ knotsBaromVisibWave heightAir tempDewpointWater temp
2020-Sep-27 19:00N 25°42' W 078°24'0 0.0 110 / 31012.7 30.019.429.0
2020-Sep-27 07:00N 25°42' W 078°24'0 0.0 220 / 81013.9 27.024.129.0
2020-Sep-26 19:00N 25°42' W 078°24'0 0.0 240 / 51015.2 30.022.829.0
2020-Sep-26 07:00N 25°42' W 078°24'0 0.0 200 / 121015.6 27.024.129.0
2020-Sep-25 19:00N 25°42' W 078°24'   210 / 201015.6 28.025.230.0
2020-Sep-19 23:53N 26°16' W 079°19'7 2.1
2020-Sep-19 20:30N 26°18' W 079°26'3 2.1
2020-Sep-19 19:00N 26°17' W 079°30'10 6.4
2020-Sep-19 17:31N 26°08' W 079°33'7 6.8
2020-Sep-19 16:31N 26°01' W 079°34'13 5.0
2020-Sep-19 14:01N 25°49' W 079°35'17 5.5
2020-Sep-19 11:00N 26°03' W 079°27'2 2.4
2020-Sep-19 10:00N 26°06' W 079°26'7 2.6
2020-Sep-19 07:30N 26°12' W 079°25'1 2.8
2020-Sep-19 07:00N 26°14' W 079°25'6 2.8
2020-Sep-19 05:00N 26°19' W 079°26'1 2.8
2020-Sep-19 04:30N 26°21' W 079°26'7 2.9
2020-Sep-19 02:10N 26°27' W 079°27'2 2.4
2020-Sep-19 01:28N 26°29' W 079°27'1 0.7
2020-Sep-18 23:26N 26°28' W 079°28'6 6.4
2020-Sep-18 22:28N 26°22' W 079°28'16 6.6
2020-Sep-18 20:00N 26°06' W 079°33'7 6.9
2020-Sep-18 19:00N 25°60' W 079°35'7 6.9
2020-Sep-18 18:00N 25°53' W 079°37'11 3.7
2020-Sep-18 15:00N 25°42' W 079°36'14 9.6
2020-Sep-18 13:30N 25°55' W 079°29'17 5.3
2020-Sep-18 10:20N 26°08' W 079°17'5 1.9
2020-Sep-18 07:27N 26°10' W 079°11'1 1.7
2020-Sep-18 06:55N 26°11' W 079°11'  
Track history (hours):
 
Tides and Currents Weather Stations Pressure Air Temp Water Temp Dewpoint Dewpoint Depression Visibility Wind Speed Wind Dir Waves Ship Positions

Paradise

Operator: Carnival Cruise Lines

Last reported at 2020-Sep-27 19:00 UTC. Time now 2020-Sep-29 07:43 UTC.
Position N 25°42' W 078°24'.

Type: Passenger vessel. MMSI: 355833000.

Wind from 110 at 3 knots

Barometer 1012.7 mb
Air temperature 30.0 ° C
Dewpoint 19.4 ° C
Water temperature 29.0 ° C

Date/timePositionNaut miles runAvg speedWind from/ knotsBaromVisibWave heightAir tempDewpointWater temp
2020-Sep-27 19:00N 25°42' W 078°24'0 0.0 110 / 31012.7 30.019.429.0
2020-Sep-27 07:00N 25°42' W 078°24'0 0.0 220 / 81013.9 27.024.129.0
2020-Sep-26 19:00N 25°42' W 078°24'0 0.0 240 / 51015.2 30.022.829.0
2020-Sep-26 07:00N 25°42' W 078°24'0 0.0 200 / 121015.6 27.024.129.0
2020-Sep-25 19:00N 25°42' W 078°24'   210 / 201015.6 28.025.230.0
2020-Sep-19 23:53N 26°16' W 079°19'7 2.1
2020-Sep-19 20:30N 26°18' W 079°26'3 2.1
2020-Sep-19 19:00N 26°17' W 079°30'10 6.4
2020-Sep-19 17:31N 26°08' W 079°33'7 6.8
2020-Sep-19 16:31N 26°01' W 079°34'13 5.0
2020-Sep-19 14:01N 25°49' W 079°35'17 5.5
2020-Sep-19 11:00N 26°03' W 079°27'2 2.4
2020-Sep-19 10:00N 26°06' W 079°26'7 2.6
2020-Sep-19 07:30N 26°12' W 079°25'1 2.8
2020-Sep-19 07:00N 26°14' W 079°25'6 2.8
2020-Sep-19 05:00N 26°19' W 079°26'1 2.8
2020-Sep-19 04:30N 26°21' W 079°26'7 2.9
2020-Sep-19 02:10N 26°27' W 079°27'2 2.4
2020-Sep-19 01:28N 26°29' W 079°27'1 0.7
2020-Sep-18 23:26N 26°28' W 079°28'6 6.4
2020-Sep-18 22:28N 26°22' W 079°28'16 6.6
2020-Sep-18 20:00N 26°06' W 079°33'7 6.9
2020-Sep-18 19:00N 25°60' W 079°35'7 6.9
2020-Sep-18 18:00N 25°53' W 079°37'11 3.7
2020-Sep-18 15:00N 25°42' W 079°36'14 9.6
2020-Sep-18 13:30N 25°55' W 079°29'17 5.3
2020-Sep-18 10:20N 26°08' W 079°17'5 1.9
2020-Sep-18 07:27N 26°10' W 079°11'1 1.7
2020-Sep-18 06:55N 26°11' W 079°11'  

Dump ship's entire track history